sensor_id;sensor_type;location;lat;lon;timestamp;P1;durP1;ratioP1;P2;durP2;ratioP2
21036;SDS011;10677;50.942;4.028;2023-07-31T00:02:03;13.32;;;4.70;;
21036;SDS011;10677;50.942;4.028;2023-07-31T00:04:28;16.90;;;4.65;;
21036;SDS011;10677;50.942;4.028;2023-07-31T00:06:54;16.15;;;5.55;;
21036;SDS011;10677;50.942;4.028;2023-07-31T00:09:20;15.50;;;4.93;;
21036;SDS011;10677;50.942;4.028;2023-07-31T00:11:45;18.20;;;5.30;;
21036;SDS011;10677;50.942;4.028;2023-07-31T00:14:11;18.80;;;5.40;;
21036;SDS011;10677;50.942;4.028;2023-07-31T00:16:36;17.67;;;4.93;;
21036;SDS011;10677;50.942;4.028;2023-07-31T00:19:02;19.15;;;5.10;;
21036;SDS011;10677;50.942;4.028;2023-07-31T00:21:28;14.65;;;4.93;;
21036;SDS011;10677;50.942;4.028;2023-07-31T00:23:53;14.73;;;4.95;;
21036;SDS011;10677;50.942;4.028;2023-07-31T00:26:19;14.70;;;4.38;;
21036;SDS011;10677;50.942;4.028;2023-07-31T00:28:44;17.00;;;5.20;;
21036;SDS011;10677;50.942;4.028;2023-07-31T00:31:10;16.80;;;4.57;;
21036;SDS011;10677;50.942;4.028;2023-07-31T00:33:36;17.38;;;4.70;;
21036;SDS011;10677;50.942;4.028;2023-07-31T00:36:02;16.15;;;4.80;;
21036;SDS011;10677;50.942;4.028;2023-07-31T00:38:28;16.15;;;5.00;;
21036;SDS011;10677;50.942;4.028;2023-07-31T00:40:54;16.55;;;5.25;;
21036;SDS011;10677;50.942;4.028;2023-07-31T00:43:19;18.48;;;5.30;;
21036;SDS011;10677;50.942;4.028;2023-07-31T00:45:45;14.93;;;4.78;;
21036;SDS011;10677;50.942;4.028;2023-07-31T00:48:11;16.77;;;4.85;;
21036;SDS011;10677;50.942;4.028;2023-07-31T00:50:36;14.10;;;4.85;;
21036;SDS011;10677;50.942;4.028;2023-07-31T00:53:03;19.25;;;5.55;;
21036;SDS011;10677;50.942;4.028;2023-07-31T00:55:29;19.42;;;5.28;;
21036;SDS011;10677;50.942;4.028;2023-07-31T00:57:55;17.58;;;5.93;;
21036;SDS011;10677;50.942;4.028;2023-07-31T01:00:21;12.35;;;4.93;;
21036;SDS011;10677;50.942;4.028;2023-07-31T01:02:50;15.00;;;4.88;;
21036;SDS011;10677;50.942;4.028;2023-07-31T01:05:17;16.45;;;5.38;;
21036;SDS011;10677;50.942;4.028;2023-07-31T01:08:15;20.80;;;5.63;;
21036;SDS011;10677;50.942;4.028;2023-07-31T01:11:11;17.88;;;5.97;;
21036;SDS011;10677;50.942;4.028;2023-07-31T01:13:44;16.75;;;6.03;;
21036;SDS011;10677;50.942;4.028;2023-07-31T01:16:10;20.25;;;5.18;;
21036;SDS011;10677;50.942;4.028;2023-07-31T01:18:36;15.10;;;4.28;;
21036;SDS011;10677;50.942;4.028;2023-07-31T01:26:36;16.08;;;5.13;;
21036;SDS011;10677;50.942;4.028;2023-07-31T01:29:12;19.70;;;4.97;;
21036;SDS011;10677;50.942;4.028;2023-07-31T01:31:48;17.75;;;4.40;;
21036;SDS011;10677;50.942;4.028;2023-07-31T01:34:18;15.70;;;4.20;;
21036;SDS011;10677;50.942;4.028;2023-07-31T01:36:45;12.65;;;4.78;;
21036;SDS011;10677;50.942;4.028;2023-07-31T01:39:11;13.00;;;4.95;;
21036;SDS011;10677;50.942;4.028;2023-07-31T01:41:36;18.52;;;5.47;;
21036;SDS011;10677;50.942;4.028;2023-07-31T01:44:02;20.92;;;5.43;;
21036;SDS011;10677;50.942;4.028;2023-07-31T01:46:28;14.02;;;4.45;;
21036;SDS011;10677;50.942;4.028;2023-07-31T01:48:54;15.32;;;5.28;;
21036;SDS011;10677;50.942;4.028;2023-07-31T01:51:19;20.02;;;5.38;;
21036;SDS011;10677;50.942;4.028;2023-07-31T01:53:45;15.00;;;4.43;;
21036;SDS011;10677;50.942;4.028;2023-07-31T01:56:11;15.20;;;5.60;;
21036;SDS011;10677;50.942;4.028;2023-07-31T01:58:36;16.73;;;5.00;;
21036;SDS011;10677;50.942;4.028;2023-07-31T02:01:02;14.85;;;4.53;;
21036;SDS011;10677;50.942;4.028;2023-07-31T02:03:28;13.98;;;4.30;;
21036;SDS011;10677;50.942;4.028;2023-07-31T02:05:54;14.40;;;4.97;;
21036;SDS011;10677;50.942;4.028;2023-07-31T02:08:19;13.52;;;4.85;;
21036;SDS011;10677;50.942;4.028;2023-07-31T02:10:45;14.23;;;4.28;;
21036;SDS011;10677;50.942;4.028;2023-07-31T02:13:11;16.83;;;4.88;;
21036;SDS011;10677;50.942;4.028;2023-07-31T02:15:36;13.07;;;4.38;;
21036;SDS011;10677;50.942;4.028;2023-07-31T02:18:02;11.88;;;4.45;;
21036;SDS011;10677;50.942;4.028;2023-07-31T02:20:28;14.77;;;4.50;;
21036;SDS011;10677;50.942;4.028;2023-07-31T02:22:53;18.60;;;4.45;;
21036;SDS011;10677;50.942;4.028;2023-07-31T02:25:19;15.82;;;4.75;;
21036;SDS011;10677;50.942;4.028;2023-07-31T02:27:44;11.95;;;4.95;;
21036;SDS011;10677;50.942;4.028;2023-07-31T02:30:10;16.15;;;4.35;;
21036;SDS011;10677;50.942;4.028;2023-07-31T02:32:36;15.32;;;4.88;;
21036;SDS011;10677;50.942;4.028;2023-07-31T02:35:02;16.02;;;4.70;;
21036;SDS011;10677;50.942;4.028;2023-07-31T02:37:28;12.70;;;5.05;;
21036;SDS011;10677;50.942;4.028;2023-07-31T02:39:54;14.57;;;4.93;;
21036;SDS011;10677;50.942;4.028;2023-07-31T02:42:20;19.30;;;4.82;;
21036;SDS011;10677;50.942;4.028;2023-07-31T02:44:45;17.27;;;5.03;;
21036;SDS011;10677;50.942;4.028;2023-07-31T02:47:11;13.48;;;5.40;;
21036;SDS011;10677;50.942;4.028;2023-07-31T02:49:37;13.23;;;4.97;;
21036;SDS011;10677;50.942;4.028;2023-07-31T02:52:02;11.65;;;4.65;;
21036;SDS011;10677;50.942;4.028;2023-07-31T02:54:28;13.90;;;5.53;;
21036;SDS011;10677;50.942;4.028;2023-07-31T02:56:54;14.57;;;5.45;;
21036;SDS011;10677;50.942;4.028;2023-07-31T02:59:20;13.52;;;5.60;;
21036;SDS011;10677;50.942;4.028;2023-07-31T03:01:45;13.70;;;5.95;;
21036;SDS011;10677;50.942;4.028;2023-07-31T03:04:11;18.27;;;6.45;;
21036;SDS011;10677;50.942;4.028;2023-07-31T03:06:37;16.65;;;5.90;;
21036;SDS011;10677;50.942;4.028;2023-07-31T03:09:02;14.15;;;5.40;;
21036;SDS011;10677;50.942;4.028;2023-07-31T03:11:28;14.90;;;5.32;;
21036;SDS011;10677;50.942;4.028;2023-07-31T03:13:53;12.57;;;5.00;;
21036;SDS011;10677;50.942;4.028;2023-07-31T03:16:19;16.73;;;5.80;;
21036;SDS011;10677;50.942;4.028;2023-07-31T03:18:45;11.43;;;4.97;;
21036;SDS011;10677;50.942;4.028;2023-07-31T03:21:10;10.95;;;4.75;;
21036;SDS011;10677;50.942;4.028;2023-07-31T03:23:37;14.05;;;5.35;;
21036;SDS011;10677;50.942;4.028;2023-07-31T03:26:06;9.60;;;4.35;;
21036;SDS011;10677;50.942;4.028;2023-07-31T03:28:32;10.52;;;4.75;;
21036;SDS011;10677;50.942;4.028;2023-07-31T03:30:58;12.10;;;5.53;;
21036;SDS011;10677;50.942;4.028;2023-07-31T03:33:24;10.85;;;4.45;;
21036;SDS011;10677;50.942;4.028;2023-07-31T03:35:49;10.77;;;4.95;;
21036;SDS011;10677;50.942;4.028;2023-07-31T03:38:15;12.63;;;5.47;;
21036;SDS011;10677;50.942;4.028;2023-07-31T03:40:41;11.70;;;5.05;;
21036;SDS011;10677;50.942;4.028;2023-07-31T03:43:06;10.40;;;4.68;;
21036;SDS011;10677;50.942;4.028;2023-07-31T03:45:32;12.40;;;5.10;;
21036;SDS011;10677;50.942;4.028;2023-07-31T03:47:58;12.57;;;5.13;;
21036;SDS011;10677;50.942;4.028;2023-07-31T03:50:23;13.25;;;5.20;;
21036;SDS011;10677;50.942;4.028;2023-07-31T03:52:50;11.45;;;5.15;;
21036;SDS011;10677;50.942;4.028;2023-07-31T03:55:15;13.48;;;4.70;;
21036;SDS011;10677;50.942;4.028;2023-07-31T03:57:41;13.48;;;5.28;;
21036;SDS011;10677;50.942;4.028;2023-07-31T04:00:07;11.93;;;4.82;;
21036;SDS011;10677;50.942;4.028;2023-07-31T04:02:33;11.70;;;5.18;;
21036;SDS011;10677;50.942;4.028;2023-07-31T04:04:58;15.40;;;6.03;;
21036;SDS011;10677;50.942;4.028;2023-07-31T04:07:24;11.45;;;5.32;;
21036;SDS011;10677;50.942;4.028;2023-07-31T04:09:50;12.00;;;5.30;;
21036;SDS011;10677;50.942;4.028;2023-07-31T04:12:15;10.30;;;5.32;;
21036;SDS011;10677;50.942;4.028;2023-07-31T04:14:41;11.23;;;5.57;;
21036;SDS011;10677;50.942;4.028;2023-07-31T04:17:06;11.80;;;5.13;;
21036;SDS011;10677;50.942;4.028;2023-07-31T04:19:32;13.02;;;6.00;;
21036;SDS011;10677;50.942;4.028;2023-07-31T04:21:58;14.05;;;4.90;;
21036;SDS011;10677;50.942;4.028;2023-07-31T04:24:23;9.82;;;4.95;;
21036;SDS011;10677;50.942;4.028;2023-07-31T04:26:50;10.82;;;5.60;;
21036;SDS011;10677;50.942;4.028;2023-07-31T04:29:16;10.43;;;5.03;;
21036;SDS011;10677;50.942;4.028;2023-07-31T04:31:41;11.98;;;5.75;;
21036;SDS011;10677;50.942;4.028;2023-07-31T04:34:07;8.75;;;5.13;;
21036;SDS011;10677;50.942;4.028;2023-07-31T04:36:33;10.20;;;5.38;;
21036;SDS011;10677;50.942;4.028;2023-07-31T04:38:59;11.05;;;6.18;;
21036;SDS011;10677;50.942;4.028;2023-07-31T04:41:25;13.95;;;5.88;;
21036;SDS011;10677;50.942;4.028;2023-07-31T04:43:51;11.85;;;5.80;;
21036;SDS011;10677;50.942;4.028;2023-07-31T04:46:17;9.15;;;5.15;;
21036;SDS011;10677;50.942;4.028;2023-07-31T04:48:43;11.85;;;5.30;;
21036;SDS011;10677;50.942;4.028;2023-07-31T04:51:08;10.23;;;5.60;;
21036;SDS011;10677;50.942;4.028;2023-07-31T04:53:34;13.55;;;6.00;;
21036;SDS011;10677;50.942;4.028;2023-07-31T04:56:00;10.00;;;5.25;;
21036;SDS011;10677;50.942;4.028;2023-07-31T04:58:26;21.63;;;11.55;;
21036;SDS011;10677;50.942;4.028;2023-07-31T05:00:52;11.85;;;5.32;;
21036;SDS011;10677;50.942;4.028;2023-07-31T05:03:17;15.57;;;5.78;;
21036;SDS011;10677;50.942;4.028;2023-07-31T05:05:43;10.98;;;5.93;;
21036;SDS011;10677;50.942;4.028;2023-07-31T05:08:08;9.95;;;5.80;;
21036;SDS011;10677;50.942;4.028;2023-07-31T05:10:34;11.68;;;5.70;;
21036;SDS011;10677;50.942;4.028;2023-07-31T05:13:00;10.25;;;5.75;;
21036;SDS011;10677;50.942;4.028;2023-07-31T05:15:25;12.70;;;6.15;;
21036;SDS011;10677;50.942;4.028;2023-07-31T05:17:51;11.88;;;6.25;;
21036;SDS011;10677;50.942;4.028;2023-07-31T05:20:17;14.77;;;6.20;;
21036;SDS011;10677;50.942;4.028;2023-07-31T05:22:42;11.55;;;6.25;;
21036;SDS011;10677;50.942;4.028;2023-07-31T05:25:08;10.75;;;5.88;;
21036;SDS011;10677;50.942;4.028;2023-07-31T05:27:34;10.98;;;5.28;;
21036;SDS011;10677;50.942;4.028;2023-07-31T05:29:59;9.75;;;5.78;;
21036;SDS011;10677;50.942;4.028;2023-07-31T05:32:25;10.82;;;5.95;;
21036;SDS011;10677;50.942;4.028;2023-07-31T05:34:51;11.95;;;5.65;;
21036;SDS011;10677;50.942;4.028;2023-07-31T05:37:17;15.13;;;6.07;;
21036;SDS011;10677;50.942;4.028;2023-07-31T05:39:43;10.95;;;5.50;;
21036;SDS011;10677;50.942;4.028;2023-07-31T05:42:09;11.15;;;5.55;;
21036;SDS011;10677;50.942;4.028;2023-07-31T05:44:34;11.38;;;5.35;;
21036;SDS011;10677;50.942;4.028;2023-07-31T05:47:00;13.32;;;5.50;;
21036;SDS011;10677;50.942;4.028;2023-07-31T05:49:26;10.32;;;4.75;;
21036;SDS011;10677;50.942;4.028;2023-07-31T05:51:51;14.93;;;5.38;;
21036;SDS011;10677;50.942;4.028;2023-07-31T05:54:17;11.98;;;4.80;;
21036;SDS011;10677;50.942;4.028;2023-07-31T05:56:43;10.93;;;4.70;;
21036;SDS011;10677;50.942;4.028;2023-07-31T05:59:09;14.07;;;4.65;;
21036;SDS011;10677;50.942;4.028;2023-07-31T06:01:37;12.82;;;4.18;;
21036;SDS011;10677;50.942;4.028;2023-07-31T06:04:02;8.55;;;3.80;;
21036;SDS011;10677;50.942;4.028;2023-07-31T06:06:29;14.07;;;4.78;;
21036;SDS011;10677;50.942;4.028;2023-07-31T06:08:54;19.40;;;4.95;;
21036;SDS011;10677;50.942;4.028;2023-07-31T06:11:20;10.50;;;4.18;;
21036;SDS011;10677;50.942;4.028;2023-07-31T06:13:47;12.05;;;5.00;;
21036;SDS011;10677;50.942;4.028;2023-07-31T06:16:14;11.38;;;4.15;;
21036;SDS011;10677;50.942;4.028;2023-07-31T06:18:40;9.20;;;4.00;;
21036;SDS011;10677;50.942;4.028;2023-07-31T06:21:06;8.98;;;3.63;;
21036;SDS011;10677;50.942;4.028;2023-07-31T06:23:32;12.18;;;4.30;;
21036;SDS011;10677;50.942;4.028;2023-07-31T06:25:58;8.77;;;4.10;;
21036;SDS011;10677;50.942;4.028;2023-07-31T06:28:27;10.27;;;4.05;;
21036;SDS011;10677;50.942;4.028;2023-07-31T06:30:56;6.20;;;3.42;;
21036;SDS011;10677;50.942;4.028;2023-07-31T06:33:30;10.13;;;3.85;;
21036;SDS011;10677;50.942;4.028;2023-07-31T06:35:55;8.90;;;4.35;;
21036;SDS011;10677;50.942;4.028;2023-07-31T06:38:25;8.38;;;4.10;;
21036;SDS011;10677;50.942;4.028;2023-07-31T06:40:51;11.43;;;3.55;;
21036;SDS011;10677;50.942;4.028;2023-07-31T06:43:17;8.32;;;3.60;;
21036;SDS011;10677;50.942;4.028;2023-07-31T06:45:43;10.27;;;3.28;;
21036;SDS011;10677;50.942;4.028;2023-07-31T06:48:09;7.97;;;3.15;;
21036;SDS011;10677;50.942;4.028;2023-07-31T06:50:35;8.65;;;3.58;;
21036;SDS011;10677;50.942;4.028;2023-07-31T06:53:00;8.05;;;3.65;;
21036;SDS011;10677;50.942;4.028;2023-07-31T06:55:27;7.32;;;3.40;;
21036;SDS011;10677;50.942;4.028;2023-07-31T06:57:53;9.10;;;3.78;;
21036;SDS011;10677;50.942;4.028;2023-07-31T07:00:20;10.07;;;3.38;;
21036;SDS011;10677;50.942;4.028;2023-07-31T07:02:47;11.13;;;3.42;;
21036;SDS011;10677;50.942;4.028;2023-07-31T07:05:13;8.27;;;3.13;;
21036;SDS011;10677;50.942;4.028;2023-07-31T07:07:40;9.63;;;3.80;;
21036;SDS011;10677;50.942;4.028;2023-07-31T07:10:06;10.00;;;4.10;;
21036;SDS011;10677;50.942;4.028;2023-07-31T07:12:32;9.82;;;3.40;;
21036;SDS011;10677;50.942;4.028;2023-07-31T07:14:58;8.13;;;3.72;;
21036;SDS011;10677;50.942;4.028;2023-07-31T07:17:25;8.48;;;3.75;;
21036;SDS011;10677;50.942;4.028;2023-07-31T07:19:51;9.45;;;3.88;;
21036;SDS011;10677;50.942;4.028;2023-07-31T07:22:17;9.27;;;3.92;;
21036;SDS011;10677;50.942;4.028;2023-07-31T07:24:43;13.63;;;3.50;;
21036;SDS011;10677;50.942;4.028;2023-07-31T07:27:09;7.10;;;3.60;;
21036;SDS011;10677;50.942;4.028;2023-07-31T07:29:34;7.20;;;3.45;;
21036;SDS011;10677;50.942;4.028;2023-07-31T07:32:00;10.18;;;3.35;;
21036;SDS011;10677;50.942;4.028;2023-07-31T07:34:27;6.63;;;2.97;;
21036;SDS011;10677;50.942;4.028;2023-07-31T07:36:53;9.57;;;3.33;;
21036;SDS011;10677;50.942;4.028;2023-07-31T07:39:19;8.48;;;3.17;;
21036;SDS011;10677;50.942;4.028;2023-07-31T07:41:45;9.18;;;3.05;;
21036;SDS011;10677;50.942;4.028;2023-07-31T07:44:11;6.32;;;3.42;;
21036;SDS011;10677;50.942;4.028;2023-07-31T07:46:38;9.27;;;3.97;;
21036;SDS011;10677;50.942;4.028;2023-07-31T07:49:03;8.15;;;3.40;;
21036;SDS011;10677;50.942;4.028;2023-07-31T07:51:29;9.90;;;3.92;;
21036;SDS011;10677;50.942;4.028;2023-07-31T07:53:56;6.45;;;2.95;;
21036;SDS011;10677;50.942;4.028;2023-07-31T07:56:26;10.30;;;3.05;;
21036;SDS011;10677;50.942;4.028;2023-07-31T07:58:52;7.65;;;3.05;;
21036;SDS011;10677;50.942;4.028;2023-07-31T08:01:18;7.18;;;3.10;;
21036;SDS011;10677;50.942;4.028;2023-07-31T08:03:44;7.68;;;2.80;;
21036;SDS011;10677;50.942;4.028;2023-07-31T08:06:10;8.07;;;3.13;;
21036;SDS011;10677;50.942;4.028;2023-07-31T08:08:37;7.13;;;3.40;;
21036;SDS011;10677;50.942;4.028;2023-07-31T08:11:04;5.65;;;2.80;;
21036;SDS011;10677;50.942;4.028;2023-07-31T08:13:31;5.75;;;3.30;;
21036;SDS011;10677;50.942;4.028;2023-07-31T08:15:57;8.35;;;3.42;;
21036;SDS011;10677;50.942;4.028;2023-07-31T08:18:23;10.35;;;3.20;;
21036;SDS011;10677;50.942;4.028;2023-07-31T08:20:49;9.35;;;2.60;;
21036;SDS011;10677;50.942;4.028;2023-07-31T08:23:14;9.38;;;2.97;;
21036;SDS011;10677;50.942;4.028;2023-07-31T08:25:40;9.60;;;2.75;;
21036;SDS011;10677;50.942;4.028;2023-07-31T08:28:06;7.60;;;3.40;;
21036;SDS011;10677;50.942;4.028;2023-07-31T08:30:32;5.47;;;2.92;;
21036;SDS011;10677;50.942;4.028;2023-07-31T08:32:58;9.82;;;3.35;;
21036;SDS011;10677;50.942;4.028;2023-07-31T08:35:25;6.28;;;2.60;;
21036;SDS011;10677;50.942;4.028;2023-07-31T08:37:53;7.22;;;2.75;;
21036;SDS011;10677;50.942;4.028;2023-07-31T08:40:18;10.60;;;2.70;;
21036;SDS011;10677;50.942;4.028;2023-07-31T08:42:45;7.40;;;3.00;;
21036;SDS011;10677;50.942;4.028;2023-07-31T08:45:15;7.97;;;3.20;;
21036;SDS011;10677;50.942;4.028;2023-07-31T08:47:50;6.53;;;3.00;;
21036;SDS011;10677;50.942;4.028;2023-07-31T08:50:20;7.75;;;3.00;;
21036;SDS011;10677;50.942;4.028;2023-07-31T08:52:46;6.97;;;3.35;;
21036;SDS011;10677;50.942;4.028;2023-07-31T08:55:14;8.35;;;3.15;;
21036;SDS011;10677;50.942;4.028;2023-07-31T08:57:40;11.25;;;3.78;;
21036;SDS011;10677;50.942;4.028;2023-07-31T09:00:08;7.15;;;3.30;;
21036;SDS011;10677;50.942;4.028;2023-07-31T09:02:56;5.53;;;2.83;;
21036;SDS011;10677;50.942;4.028;2023-07-31T09:05:28;8.65;;;3.35;;
21036;SDS011;10677;50.942;4.028;2023-07-31T09:07:55;6.53;;;3.00;;
21036;SDS011;10677;50.942;4.028;2023-07-31T09:10:23;10.73;;;3.72;;
21036;SDS011;10677;50.942;4.028;2023-07-31T09:12:50;8.85;;;3.30;;
21036;SDS011;10677;50.942;4.028;2023-07-31T09:15:18;6.93;;;3.80;;
21036;SDS011;10677;50.942;4.028;2023-07-31T09:17:46;8.13;;;3.22;;
21036;SDS011;10677;50.942;4.028;2023-07-31T09:20:15;8.85;;;4.00;;
21036;SDS011;10677;50.942;4.028;2023-07-31T09:22:46;10.05;;;3.60;;
21036;SDS011;10677;50.942;4.028;2023-07-31T09:25:21;8.40;;;4.03;;
21036;SDS011;10677;50.942;4.028;2023-07-31T09:27:49;11.70;;;4.03;;
21036;SDS011;10677;50.942;4.028;2023-07-31T09:30:25;10.25;;;4.45;;
21036;SDS011;10677;50.942;4.028;2023-07-31T09:32:59;8.60;;;3.90;;
21036;SDS011;10677;50.942;4.028;2023-07-31T09:35:28;6.57;;;3.30;;
21036;SDS011;10677;50.942;4.028;2023-07-31T09:38:00;7.97;;;3.83;;
21036;SDS011;10677;50.942;4.028;2023-07-31T09:40:32;7.57;;;3.65;;
21036;SDS011;10677;50.942;4.028;2023-07-31T09:43:00;9.38;;;4.00;;
21036;SDS011;10677;50.942;4.028;2023-07-31T09:45:30;8.05;;;4.20;;
21036;SDS011;10677;50.942;4.028;2023-07-31T09:48:07;7.93;;;3.58;;
21036;SDS011;10677;50.942;4.028;2023-07-31T09:50:46;9.60;;;4.20;;
21036;SDS011;10677;50.942;4.028;2023-07-31T09:53:14;8.75;;;4.13;;
21036;SDS011;10677;50.942;4.028;2023-07-31T09:55:41;8.10;;;3.50;;
21036;SDS011;10677;50.942;4.028;2023-07-31T09:58:08;7.93;;;3.47;;
21036;SDS011;10677;50.942;4.028;2023-07-31T10:00:35;7.03;;;3.50;;
21036;SDS011;10677;50.942;4.028;2023-07-31T10:03:03;8.32;;;4.53;;
21036;SDS011;10677;50.942;4.028;2023-07-31T10:05:34;10.25;;;4.63;;
21036;SDS011;10677;50.942;4.028;2023-07-31T10:08:06;9.35;;;4.45;;
21036;SDS011;10677;50.942;4.028;2023-07-31T10:10:34;10.00;;;4.70;;
21036;SDS011;10677;50.942;4.028;2023-07-31T10:13:01;8.60;;;4.32;;
21036;SDS011;10677;50.942;4.028;2023-07-31T10:15:29;8.90;;;4.22;;
21036;SDS011;10677;50.942;4.028;2023-07-31T10:17:56;11.13;;;4.95;;
21036;SDS011;10677;50.942;4.028;2023-07-31T10:20:23;11.00;;;4.88;;
21036;SDS011;10677;50.942;4.028;2023-07-31T10:22:49;10.95;;;4.75;;
21036;SDS011;10677;50.942;4.028;2023-07-31T10:25:16;11.88;;;4.90;;
21036;SDS011;10677;50.942;4.028;2023-07-31T10:27:44;8.93;;;4.85;;
21036;SDS011;10677;50.942;4.028;2023-07-31T10:30:14;11.13;;;4.85;;
21036;SDS011;10677;50.942;4.028;2023-07-31T10:32:41;9.68;;;4.78;;
21036;SDS011;10677;50.942;4.028;2023-07-31T10:35:09;10.90;;;5.15;;
21036;SDS011;10677;50.942;4.028;2023-07-31T10:37:36;11.52;;;5.32;;
21036;SDS011;10677;50.942;4.028;2023-07-31T10:42:32;11.20;;;5.13;;
21036;SDS011;10677;50.942;4.028;2023-07-31T10:45:05;12.02;;;5.75;;
21036;SDS011;10677;50.942;4.028;2023-07-31T10:50:12;16.05;;;5.40;;
21036;SDS011;10677;50.942;4.028;2023-07-31T10:52:49;11.75;;;4.70;;
21036;SDS011;10677;50.942;4.028;2023-07-31T10:55:26;11.80;;;4.32;;
21036;SDS011;10677;50.942;4.028;2023-07-31T10:57:54;10.88;;;4.80;;
21036;SDS011;10677;50.942;4.028;2023-07-31T11:00:25;10.35;;;4.43;;
21036;SDS011;10677;50.942;4.028;2023-07-31T11:02:58;9.40;;;4.55;;
21036;SDS011;10677;50.942;4.028;2023-07-31T11:08:35;12.18;;;5.32;;
21036;SDS011;10677;50.942;4.028;2023-07-31T11:11:07;7.72;;;4.20;;
21036;SDS011;10677;50.942;4.028;2023-07-31T11:16:06;11.70;;;4.28;;
21036;SDS011;10677;50.942;4.028;2023-07-31T11:18:32;12.95;;;4.65;;
21036;SDS011;10677;50.942;4.028;2023-07-31T11:20:58;11.05;;;5.60;;
21036;SDS011;10677;50.942;4.028;2023-07-31T11:23:23;11.48;;;4.57;;
21036;SDS011;10677;50.942;4.028;2023-07-31T11:25:50;11.07;;;4.95;;
21036;SDS011;10677;50.942;4.028;2023-07-31T11:28:16;7.63;;;4.32;;
21036;SDS011;10677;50.942;4.028;2023-07-31T11:30:44;11.07;;;5.93;;
21036;SDS011;10677;50.942;4.028;2023-07-31T11:33:11;11.20;;;5.25;;
21036;SDS011;10677;50.942;4.028;2023-07-31T11:35:41;12.52;;;5.70;;
21036;SDS011;10677;50.942;4.028;2023-07-31T11:38:12;12.13;;;5.20;;
21036;SDS011;10677;50.942;4.028;2023-07-31T11:40:50;11.32;;;5.47;;
21036;SDS011;10677;50.942;4.028;2023-07-31T11:43:20;12.40;;;5.30;;
21036;SDS011;10677;50.942;4.028;2023-07-31T11:45:47;9.95;;;5.10;;
21036;SDS011;10677;50.942;4.028;2023-07-31T11:48:26;14.20;;;4.85;;
21036;SDS011;10677;50.942;4.028;2023-07-31T11:50:54;10.55;;;5.00;;
21036;SDS011;10677;50.942;4.028;2023-07-31T11:53:45;9.77;;;4.55;;
21036;SDS011;10677;50.942;4.028;2023-07-31T11:56:36;10.95;;;4.88;;
21036;SDS011;10677;50.942;4.028;2023-07-31T11:59:02;11.18;;;4.65;;
21036;SDS011;10677;50.942;4.028;2023-07-31T12:01:30;9.75;;;4.50;;
21036;SDS011;10677;50.942;4.028;2023-07-31T12:03:56;7.93;;;4.30;;
21036;SDS011;10677;50.942;4.028;2023-07-31T12:06:31;11.63;;;4.93;;
21036;SDS011;10677;50.942;4.028;2023-07-31T12:09:04;9.85;;;4.43;;
21036;SDS011;10677;50.942;4.028;2023-07-31T12:11:30;10.82;;;4.15;;
21036;SDS011;10677;50.942;4.028;2023-07-31T12:13:56;10.00;;;4.20;;
21036;SDS011;10677;50.942;4.028;2023-07-31T12:16:22;10.80;;;4.85;;
21036;SDS011;10677;50.942;4.028;2023-07-31T12:18:52;9.15;;;4.00;;
21036;SDS011;10677;50.942;4.028;2023-07-31T12:21:18;12.43;;;4.65;;
21036;SDS011;10677;50.942;4.028;2023-07-31T12:23:44;11.80;;;4.47;;
21036;SDS011;10677;50.942;4.028;2023-07-31T12:26:11;8.65;;;4.03;;
21036;SDS011;10677;50.942;4.028;2023-07-31T12:28:42;10.95;;;4.93;;
21036;SDS011;10677;50.942;4.028;2023-07-31T12:31:13;10.15;;;4.65;;
21036;SDS011;10677;50.942;4.028;2023-07-31T12:33:47;12.45;;;4.45;;
21036;SDS011;10677;50.942;4.028;2023-07-31T12:36:18;9.80;;;4.70;;
21036;SDS011;10677;50.942;4.028;2023-07-31T12:38:46;11.40;;;4.38;;
21036;SDS011;10677;50.942;4.028;2023-07-31T12:41:12;11.27;;;4.70;;
21036;SDS011;10677;50.942;4.028;2023-07-31T12:43:38;9.73;;;4.88;;
21036;SDS011;10677;50.942;4.028;2023-07-31T12:46:06;9.13;;;4.60;;
21036;SDS011;10677;50.942;4.028;2023-07-31T12:48:35;13.73;;;5.28;;
21036;SDS011;10677;50.942;4.028;2023-07-31T12:51:02;19.45;;;5.40;;
21036;SDS011;10677;50.942;4.028;2023-07-31T12:53:28;12.93;;;5.55;;
21036;SDS011;10677;50.942;4.028;2023-07-31T12:55:54;12.30;;;5.50;;
21036;SDS011;10677;50.942;4.028;2023-07-31T12:58:20;12.38;;;5.43;;
21036;SDS011;10677;50.942;4.028;2023-07-31T13:00:46;10.25;;;4.97;;
21036;SDS011;10677;50.942;4.028;2023-07-31T13:03:11;9.82;;;4.78;;
21036;SDS011;10677;50.942;4.028;2023-07-31T13:05:37;10.05;;;4.50;;
21036;SDS011;10677;50.942;4.028;2023-07-31T13:08:03;8.90;;;4.22;;
21036;SDS011;10677;50.942;4.028;2023-07-31T13:10:28;7.25;;;2.90;;
21036;SDS011;10677;50.942;4.028;2023-07-31T13:12:55;8.52;;;3.83;;
21036;SDS011;10677;50.942;4.028;2023-07-31T13:15:21;7.63;;;3.45;;
21036;SDS011;10677;50.942;4.028;2023-07-31T13:17:46;8.40;;;3.38;;
21036;SDS011;10677;50.942;4.028;2023-07-31T13:20:12;6.25;;;3.47;;
21036;SDS011;10677;50.942;4.028;2023-07-31T13:22:38;6.93;;;3.17;;
21036;SDS011;10677;50.942;4.028;2023-07-31T13:25:03;7.57;;;2.72;;
21036;SDS011;10677;50.942;4.028;2023-07-31T13:27:30;7.72;;;2.78;;
21036;SDS011;10677;50.942;4.028;2023-07-31T13:29:55;5.93;;;2.65;;
21036;SDS011;10677;50.942;4.028;2023-07-31T13:32:21;4.95;;;2.35;;
21036;SDS011;10677;50.942;4.028;2023-07-31T13:34:47;6.35;;;2.88;;
21036;SDS011;10677;50.942;4.028;2023-07-31T13:37:14;4.68;;;2.22;;
21036;SDS011;10677;50.942;4.028;2023-07-31T13:39:40;6.63;;;2.53;;
21036;SDS011;10677;50.942;4.028;2023-07-31T13:42:07;4.93;;;2.53;;
21036;SDS011;10677;50.942;4.028;2023-07-31T13:44:36;4.93;;;2.38;;
21036;SDS011;10677;50.942;4.028;2023-07-31T13:47:02;6.68;;;2.95;;
21036;SDS011;10677;50.942;4.028;2023-07-31T13:49:28;5.97;;;2.58;;
21036;SDS011;10677;50.942;4.028;2023-07-31T13:51:55;6.90;;;2.80;;
21036;SDS011;10677;50.942;4.028;2023-07-31T13:54:21;4.78;;;2.72;;
21036;SDS011;10677;50.942;4.028;2023-07-31T13:56:47;9.02;;;3.47;;
21036;SDS011;10677;50.942;4.028;2023-07-31T13:59:13;5.97;;;3.10;;
21036;SDS011;10677;50.942;4.028;2023-07-31T14:01:41;9.02;;;3.70;;
21036;SDS011;10677;50.942;4.028;2023-07-31T14:04:06;7.47;;;3.88;;
21036;SDS011;10677;50.942;4.028;2023-07-31T14:06:32;9.60;;;4.35;;
21036;SDS011;10677;50.942;4.028;2023-07-31T14:08:58;7.88;;;4.38;;
21036;SDS011;10677;50.942;4.028;2023-07-31T14:11:23;10.90;;;4.95;;
21036;SDS011;10677;50.942;4.028;2023-07-31T14:13:52;8.38;;;4.40;;
21036;SDS011;10677;50.942;4.028;2023-07-31T14:16:18;8.18;;;4.30;;
21036;SDS011;10677;50.942;4.028;2023-07-31T14:18:44;7.38;;;4.32;;
21036;SDS011;10677;50.942;4.028;2023-07-31T14:21:11;11.43;;;4.50;;
21036;SDS011;10677;50.942;4.028;2023-07-31T14:23:37;9.27;;;4.15;;
21036;SDS011;10677;50.942;4.028;2023-07-31T14:26:02;7.25;;;4.22;;
21036;SDS011;10677;50.942;4.028;2023-07-31T14:28:28;9.07;;;4.18;;
21036;SDS011;10677;50.942;4.028;2023-07-31T14:30:53;6.82;;;3.47;;
21036;SDS011;10677;50.942;4.028;2023-07-31T14:33:19;8.13;;;3.25;;
21036;SDS011;10677;50.942;4.028;2023-07-31T14:35:45;8.30;;;3.55;;
21036;SDS011;10677;50.942;4.028;2023-07-31T14:38:10;7.15;;;3.22;;
21036;SDS011;10677;50.942;4.028;2023-07-31T14:40:36;8.02;;;3.33;;
21036;SDS011;10677;50.942;4.028;2023-07-31T14:43:03;6.53;;;3.00;;
21036;SDS011;10677;50.942;4.028;2023-07-31T14:45:29;7.25;;;3.25;;
21036;SDS011;10677;50.942;4.028;2023-07-31T14:47:54;7.18;;;3.17;;
21036;SDS011;10677;50.942;4.028;2023-07-31T14:50:20;5.68;;;3.15;;
21036;SDS011;10677;50.942;4.028;2023-07-31T14:52:48;4.72;;;2.58;;
21036;SDS011;10677;50.942;4.028;2023-07-31T14:55:14;6.22;;;2.97;;
21036;SDS011;10677;50.942;4.028;2023-07-31T14:57:39;4.53;;;2.40;;